createdAt,value
2022-12-03T00:03:18.064Z,17.25
2022-12-03T00:08:19.931Z,15.40
2022-12-03T00:13:21.739Z,18.25
2022-12-03T00:18:23.504Z,15.77
2022-12-03T00:23:25.315Z,16.52
2022-12-03T00:28:27.327Z,16.52
2022-12-03T00:33:29.148Z,16.88
2022-12-03T00:38:30.919Z,17.75
2022-12-03T00:43:32.789Z,15.35
2022-12-03T00:48:34.740Z,15.80
2022-12-03T00:53:36.477Z,17.48
2022-12-03T00:58:38.216Z,17.00
2022-12-03T01:03:39.977Z,16.70
2022-12-03T01:08:41.717Z,17.55
2022-12-03T01:13:43.445Z,17.40
2022-12-03T01:18:46.257Z,15.18
2022-12-03T01:23:48.092Z,17.17
2022-12-03T01:28:49.859Z,18.30
2022-12-03T01:33:51.607Z,18.50
2022-12-03T01:38:53.334Z,18.20
2022-12-03T01:43:56.812Z,18.33
2022-12-03T01:48:58.772Z,17.38
2022-12-03T01:54:02.417Z,17.73
2022-12-03T01:59:04.185Z,16.77
2022-12-03T02:04:06.065Z,16.08
2022-12-03T02:09:11.167Z,15.75
2022-12-03T02:14:19.931Z,17.75
2022-12-03T02:19:26.710Z,17.00
2022-12-03T02:24:52.747Z,18.08
2022-12-03T02:29:55.020Z,15.75
2022-12-03T02:34:56.816Z,17.17
2022-12-03T02:40:02.898Z,16.00
2022-12-03T02:45:16.685Z,16.77
2022-12-03T02:50:26.248Z,17.58
2022-12-03T02:55:36.521Z,17.98
2022-12-03T03:00:39.758Z,18.02
2022-12-03T03:05:41.938Z,16.05
2022-12-03T03:10:44.650Z,19.00
2022-12-03T03:15:48.333Z,16.98
2022-12-03T03:20:50.289Z,17.73
2022-12-03T03:26:00.481Z,17.23
2022-12-03T03:31:04.183Z,18.63
2022-12-03T03:36:06.854Z,18.30
2022-12-03T03:41:10.099Z,17.45
2022-12-03T03:46:13.327Z,18.80
2022-12-03T03:51:17.279Z,18.38
2022-12-03T03:56:20.530Z,17.80
2022-12-03T04:01:23.827Z,19.67
2022-12-03T04:06:28.963Z,17.58
2022-12-03T04:11:50.972Z,17.80
2022-12-03T04:16:52.789Z,18.20
2022-12-03T04:22:13.469Z,18.67
2022-12-03T04:27:34.070Z,19.15
2022-12-03T04:32:54.600Z,17.98
2022-12-03T04:37:56.447Z,16.77
2022-12-03T04:42:58.200Z,18.67
2022-12-03T04:47:59.968Z,18.92
2022-12-03T04:53:01.701Z,19.15
2022-12-03T04:58:03.799Z,18.42
2022-12-03T05:03:05.635Z,17.75
2022-12-03T05:08:08.256Z,18.52
2022-12-03T05:13:10.137Z,19.83
2022-12-03T05:18:11.878Z,17.98
2022-12-03T05:23:14.508Z,18.10
2022-12-03T05:28:16.351Z,18.40
2022-12-03T05:33:18.504Z,18.20
2022-12-03T05:38:20.316Z,17.48
2022-12-03T05:43:22.218Z,16.55
2022-12-03T05:48:23.976Z,16.70
2022-12-03T05:53:25.829Z,16.15
2022-12-03T05:58:27.590Z,16.02
2022-12-03T06:03:29.452Z,16.80
2022-12-03T06:08:31.223Z,16.73
2022-12-03T06:13:32.961Z,15.40
2022-12-03T06:18:34.751Z,16.30
2022-12-03T06:23:37.311Z,16.02
2022-12-03T06:28:39.080Z,16.38
2022-12-03T06:33:40.800Z,15.43
2022-12-03T06:38:42.521Z,16.35
2022-12-03T06:43:44.277Z,15.07
2022-12-03T06:48:46.043Z,15.52
2022-12-03T06:53:47.779Z,15.40
2022-12-03T06:58:50.416Z,16.52
2022-12-03T07:03:52.273Z,16.65
2022-12-03T07:08:54.005Z,20.95
2022-12-03T07:14:00.080Z,18.02
2022-12-03T07:19:06.361Z,16.17
2022-12-03T07:24:08.483Z,19.83
2022-12-03T07:29:10.245Z,17.90
2022-12-03T07:34:12.181Z,17.98
2022-12-03T07:39:14.139Z,17.45
2022-12-03T07:44:15.918Z,19.20
2022-12-03T07:49:17.734Z,18.63
2022-12-03T07:54:20.582Z,18.05
2022-12-03T07:59:22.417Z,18.48
2022-12-03T08:04:24.172Z,18.00
2022-12-03T08:09:26.512Z,19.20
2022-12-03T08:14:28.547Z,18.08
2022-12-03T08:19:30.283Z,18.60
2022-12-03T08:24:32.055Z,19.02
2022-12-03T08:29:33.882Z,19.55
2022-12-03T08:34:40.687Z,18.73
2022-12-03T08:39:51.842Z,18.30
2022-12-03T08:44:55.342Z,19.60
2022-12-03T08:50:03.345Z,20.42
2022-12-03T08:55:32.358Z,17.40
2022-12-03T09:00:34.249Z,17.48
2022-12-03T09:05:37.257Z,18.23
2022-12-03T09:10:39.016Z,17.77
2022-12-03T09:15:40.931Z,17.63
2022-12-03T09:20:42.757Z,17.08
2022-12-03T09:25:44.522Z,18.13
2022-12-03T09:30:46.366Z,17.83
2022-12-03T09:35:48.267Z,17.73
2022-12-03T09:40:50.047Z,18.30
2022-12-03T09:45:51.916Z,17.88
2022-12-03T09:50:53.703Z,17.33
2022-12-03T09:55:59.399Z,14.57
2022-12-03T10:01:01.268Z,15.70
2022-12-03T10:06:03.101Z,14.82
2022-12-03T10:11:23.888Z,15.85
2022-12-03T10:16:29.701Z,13.95
2022-12-03T10:21:39.020Z,13.45
2022-12-03T10:26:40.995Z,17.58
2022-12-03T10:31:42.791Z,16.80
2022-12-03T10:36:44.571Z,15.07
2022-12-03T10:41:46.487Z,15.15
2022-12-03T10:47:09.333Z,16.02
2022-12-03T10:52:25.987Z,12.68
2022-12-03T10:57:28.183Z,16.95
2022-12-03T11:02:29.948Z,15.50
2022-12-03T11:07:32.151Z,15.45
2022-12-03T11:12:35.548Z,15.32
2022-12-03T11:17:49.497Z,17.25
2022-12-03T11:22:57.988Z,16.67
2022-12-03T11:28:12.203Z,19.92
2022-12-03T11:33:34.488Z,18.33
2022-12-03T11:38:53.704Z,15.35
2022-12-03T11:43:58.731Z,16.30
2022-12-03T11:49:00.617Z,14.07
2022-12-03T11:54:02.698Z,15.20
2022-12-03T11:59:12.525Z,14.50
2022-12-03T12:04:33.719Z,12.48
2022-12-03T12:09:53.470Z,14.75
2022-12-03T12:14:56.374Z,12.40
2022-12-03T12:20:12.477Z,12.73
2022-12-03T12:25:29.640Z,14.50
2022-12-03T12:30:31.594Z,13.60
2022-12-03T12:35:33.721Z,13.50
2022-12-03T12:40:38.426Z,14.43
2022-12-03T12:50:45.869Z,13.50
2022-12-03T12:55:48.896Z,13.25
2022-12-03T13:00:53.247Z,14.05
2022-12-03T13:05:56.712Z,13.48
2022-12-03T13:11:00.541Z,13.80
2022-12-03T13:16:22.106Z,12.17
2022-12-03T13:21:26.898Z,12.25
2022-12-03T13:26:40.781Z,11.30
2022-12-03T13:31:54.556Z,13.17
2022-12-03T13:36:58.439Z,11.87
2022-12-03T13:42:42.235Z,12.10
2022-12-03T13:47:48.363Z,10.88
2022-12-03T13:52:50.233Z,10.05
2022-12-03T13:57:52.371Z,9.85
2022-12-03T14:02:54.272Z,9.50
2022-12-03T14:08:02.117Z,9.13
2022-12-03T14:13:04.099Z,9.65
2022-12-03T14:18:05.898Z,8.73
2022-12-03T14:23:07.690Z,9.40
2022-12-03T14:28:10.065Z,9.25
2022-12-03T14:33:11.902Z,7.82
2022-12-03T14:38:13.699Z,7.88
2022-12-03T14:43:15.455Z,7.38
2022-12-03T14:48:17.229Z,8.57
2022-12-03T14:53:22.690Z,8.32
2022-12-03T14:58:27.528Z,7.60
2022-12-03T15:03:29.271Z,8.75
2022-12-03T15:08:31.052Z,9.18
2022-12-03T15:13:32.923Z,8.80
2022-12-03T15:18:35.320Z,9.32
2022-12-03T15:23:37.093Z,8.13
2022-12-03T15:28:38.852Z,8.80
2022-12-03T15:33:40.569Z,8.68
2022-12-03T15:38:42.431Z,7.72
2022-12-03T15:43:44.178Z,8.25
2022-12-03T15:48:46.376Z,7.93
2022-12-03T15:53:48.296Z,8.63
2022-12-03T15:58:50.033Z,8.13
2022-12-03T16:03:51.787Z,8.68
2022-12-03T16:08:53.534Z,8.25
2022-12-03T16:13:55.316Z,9.02
2022-12-03T16:18:57.082Z,10.00
2022-12-03T16:24:00.293Z,9.27
2022-12-03T16:29:02.103Z,11.25
2022-12-03T16:34:03.935Z,7.82
2022-12-03T16:39:06.167Z,12.32
2022-12-03T16:44:09.648Z,9.70
2022-12-03T16:49:11.494Z,8.15
2022-12-03T16:54:13.257Z,7.13
2022-12-03T16:59:15.031Z,10.40
2022-12-03T17:04:16.758Z,8.57
2022-12-03T17:09:20.181Z,7.95
2022-12-03T17:14:21.950Z,8.80
2022-12-03T17:19:23.710Z,8.23
2022-12-03T17:24:25.495Z,8.00
2022-12-03T17:29:27.227Z,8.13
2022-12-03T17:34:28.971Z,8.45
2022-12-03T17:39:30.690Z,8.07
2022-12-03T17:44:32.480Z,8.25
2022-12-03T17:49:34.222Z,7.70
2022-12-03T17:54:55.553Z,8.20
2022-12-03T17:59:59.493Z,7.75
2022-12-03T18:05:01.315Z,7.68
2022-12-03T18:10:03.249Z,9.05
2022-12-03T18:15:05.429Z,10.80
2022-12-03T18:20:07.737Z,9.38
2022-12-03T18:25:10.033Z,7.88
2022-12-03T18:30:12.238Z,8.27
2022-12-03T18:35:14.240Z,8.48
2022-12-03T18:40:24.723Z,8.52
2022-12-03T18:45:27.954Z,9.07
2022-12-03T18:50:29.900Z,9.30
2022-12-03T18:55:35.421Z,9.98
2022-12-03T19:00:38.314Z,10.02
2022-12-03T19:05:40.176Z,9.45
2022-12-03T19:10:43.030Z,8.60
2022-12-03T19:15:46.272Z,8.63
2022-12-03T19:20:48.416Z,9.02
2022-12-03T19:25:57.775Z,8.63
2022-12-03T19:31:12.855Z,9.10
2022-12-03T19:36:24.082Z,9.55
2022-12-03T19:41:28.432Z,9.05
2022-12-03T19:46:30.706Z,9.75
2022-12-03T19:51:35.310Z,8.43
2022-12-03T19:56:38.161Z,9.63
2022-12-03T20:01:40.783Z,8.10
2022-12-03T20:06:42.773Z,8.55
2022-12-03T20:11:45.780Z,8.43
2022-12-03T20:16:47.915Z,9.63
2022-12-03T20:21:49.687Z,9.40
2022-12-03T20:26:51.441Z,10.60
2022-12-03T20:31:53.285Z,10.13
2022-12-03T20:36:55.133Z,10.13
2022-12-03T20:41:56.943Z,9.57
2022-12-03T20:46:58.764Z,11.30
2022-12-03T20:52:04.308Z,10.40
2022-12-03T20:57:06.611Z,10.75
2022-12-03T21:02:09.644Z,10.20
2022-12-03T21:07:11.448Z,11.07
2022-12-03T21:12:13.157Z,10.07
2022-12-03T21:17:14.951Z,10.38
2022-12-03T21:22:16.769Z,11.30
2022-12-03T21:27:21.808Z,10.55
2022-12-03T21:32:23.840Z,9.90
2022-12-03T21:37:25.556Z,9.93
2022-12-03T21:42:36.043Z,9.68
2022-12-03T21:47:39.284Z,10.27
2022-12-03T21:52:41.340Z,11.15
2022-12-03T21:57:43.215Z,10.88
2022-12-03T22:02:45.158Z,11.68
2022-12-03T22:07:47.143Z,10.60
2022-12-03T22:12:48.916Z,11.35
2022-12-03T22:17:50.695Z,10.75
2022-12-03T22:22:52.433Z,10.52
2022-12-03T22:27:54.179Z,11.40
2022-12-03T22:32:55.930Z,10.95
2022-12-03T22:37:57.689Z,10.63
2022-12-03T22:42:59.429Z,10.60
2022-12-03T22:48:02.626Z,10.73
2022-12-03T22:53:04.362Z,9.93
2022-12-03T22:58:06.727Z,9.63
2022-12-03T23:03:08.789Z,10.57
2022-12-03T23:08:13.802Z,10.38
2022-12-03T23:13:16.483Z,9.82
2022-12-03T23:18:19.869Z,10.80
2022-12-03T23:23:23.998Z,10.32
2022-12-03T23:28:26.697Z,9.80
2022-12-03T23:33:29.000Z,10.27
2022-12-03T23:38:30.738Z,10.20
2022-12-03T23:43:32.485Z,9.15
2022-12-03T23:48:34.323Z,9.48
2022-12-03T23:53:37.381Z,10.25
2022-12-03T23:58:39.335Z,8.98
